Time;durP1;ratioP1;P1;durP2;ratioP2;P2;SDS_P1;SDS_P2;PMS_P1;PMS_P2;Temp;Humidity;BMP_temperature;BMP_pressure;BME280_temperature;BME280_humidity;BME280_pressure;Samples;Min_cycle;Max_cycle;Signal;HPM_P1;HPM_P2
2022/05/29 00:01:59;;;;;;;2.30;1.77;;;;;;;;;;6222545;23;20848;-53
2022/05/29 00:04:26;;;;;;;2.20;1.70;;;;;;;;;;6234686;22;20795;-52
2022/05/29 00:09:55;;;;;;;2.87;1.77;;;;;;;;;;6233002;23;20432;-53
2022/05/29 00:12:21;;;;;;;5.97;2.20;;;;;;;;;;6230622;23;20390;-55
2022/05/29 00:14:48;;;;;;;5.37;1.80;;;;;;;;;;6237286;23;20397;-54
2022/05/29 00:17:14;;;;;;;3.40;1.63;;;;;;;;;;6233140;23;20371;-53
2022/05/29 00:19:40;;;;;;;3.63;1.90;;;;;;;;;;6237679;22;20390;-54
2022/05/29 00:22:06;;;;;;;3.00;2.13;;;;;;;;;;6225429;23;20479;-53
2022/05/29 00:24:32;;;;;;;4.40;1.90;;;;;;;;;;6231791;23;20858;-54
2022/05/29 00:27:17;;;;;;;3.07;1.60;;;;;;;;;;6236502;23;20377;-53
2022/05/29 00:29:46;;;;;;;4.30;1.60;;;;;;;;;;6232144;22;20473;-56
2022/05/29 00:32:12;;;;;;;5.97;1.50;;;;;;;;;;6236362;23;20772;-53
2022/05/29 00:34:38;;;;;;;2.57;1.50;;;;;;;;;;6223386;23;20510;-52
2022/05/29 00:37:04;;;;;;;2.10;1.40;;;;;;;;;;6233980;23;20377;-54
2022/05/29 00:39:30;;;;;;;4.93;1.70;;;;;;;;;;6227960;23;20451;-53
2022/05/29 00:41:56;;;;;;;2.30;1.60;;;;;;;;;;6234645;23;20383;-54
2022/05/29 00:44:50;;;;;;;7.80;1.93;;;;;;;;;;6231988;23;20389;-54
2022/05/29 00:47:17;;;;;;;5.30;2.37;;;;;;;;;;6236366;22;20461;-51
2022/05/29 00:49:55;;;;;;;5.07;2.03;;;;;;;;;;6240548;23;20868;-52
2022/05/29 00:52:26;;;;;;;3.40;1.90;;;;;;;;;;6237979;22;20552;-54
2022/05/29 00:54:55;;;;;;;2.67;1.70;;;;;;;;;;6223872;23;20559;-54
2022/05/29 00:57:41;;;;;;;3.07;1.77;;;;;;;;;;6236656;23;20424;-53
2022/05/29 01:00:08;;;;;;;3.60;1.90;;;;;;;;;;6226301;23;20377;-54
2022/05/29 01:02:34;;;;;;;2.90;1.70;;;;;;;;;;6237460;23;20414;-54
2022/05/29 01:05:00;;;;;;;7.23;1.90;;;;;;;;;;6224941;23;20798;-53
2022/05/29 01:07:26;;;;;;;2.90;1.87;;;;;;;;;;6238277;23;20855;-53
2022/05/29 01:09:53;;;;;;;3.10;1.57;;;;;;;;;;6239843;23;20393;-53
2022/05/29 01:12:31;;;;;;;8.60;1.60;;;;;;;;;;6237361;23;20525;-52
2022/05/29 01:15:03;;;;;;;3.60;2.40;;;;;;;;;;6233235;22;20394;-52
2022/05/29 01:17:32;;;;;;;4.00;2.00;;;;;;;;;;6238465;22;20431;-53
2022/05/29 01:20:04;;;;;;;3.40;1.70;;;;;;;;;;6226138;23;20744;-55
2022/05/29 01:22:38;;;;;;;4.30;2.00;;;;;;;;;;6235541;23;20400;-55
2022/05/29 01:25:11;;;;;;;2.60;1.70;;;;;;;;;;6226310;23;20765;-54
2022/05/29 01:27:57;;;;;;;2.30;1.70;;;;;;;;;;6238389;23;20389;-54
2022/05/29 01:30:25;;;;;;;4.40;1.90;;;;;;;;;;6132760;23;20468;-55
2022/05/29 01:32:54;;;;;;;2.03;1.90;;;;;;;;;;6227451;22;20966;-56
2022/05/29 01:35:23;;;;;;;3.93;2.10;;;;;;;;;;6237248;23;20420;-56
2022/05/29 01:38:09;;;;;;;2.30;1.90;;;;;;;;;;6238559;23;20390;-54
2022/05/29 01:43:45;;;;;;;3.53;2.10;;;;;;;;;;6226190;23;20365;-52
2022/05/29 01:49:14;;;;;;;2.53;1.80;;;;;;;;;;6220736;23;20674;-53
2022/05/29 01:52:00;;;;;;;5.50;1.87;;;;;;;;;;6238004;23;20397;-53
2022/05/29 01:54:30;;;;;;;3.93;1.87;;;;;;;;;;6225500;22;20454;-53
2022/05/29 01:59:54;;;;;;;3.60;1.70;;;;;;;;;;6209042;23;20783;-52
2022/05/29 02:05:27;;;;;;;2.33;1.63;;;;;;;;;;6232325;23;20378;-54
2022/05/29 02:08:00;;;;;;;6.13;1.87;;;;;;;;;;6229269;23;20416;-54
2022/05/29 02:10:34;;;;;;;1.93;1.73;;;;;;;;;;6238312;23;20382;-51
2022/05/29 02:16:08;;;;;;;2.10;1.87;;;;;;;;;;6225732;23;20376;-54
2022/05/29 02:18:58;;;;;;;5.80;2.10;;;;;;;;;;6237126;23;21096;-54
2022/05/29 02:21:28;;;;;;;2.23;1.77;;;;;;;;;;6237157;22;20868;-52
2022/05/29 02:23:54;;;;;;;4.43;2.00;;;;;;;;;;6222169;23;20390;-52
2022/05/29 02:26:21;;;;;;;3.37;1.63;;;;;;;;;;6237945;23;20386;-53
2022/05/29 02:29:14;;;;;;;2.53;1.73;;;;;;;;;;6240786;23;20693;-54
2022/05/29 02:31:52;;;;;;;2.37;1.70;;;;;;;;;;6235682;22;20737;-52
2022/05/29 02:34:18;;;;;;;4.93;2.30;;;;;;;;;;6198485;23;20469;-54
2022/05/29 02:36:50;;;;;;;2.00;1.80;;;;;;;;;;6235603;23;20456;-53
2022/05/29 02:39:21;;;;;;;2.40;2.20;;;;;;;;;;6229272;23;20892;-52
2022/05/29 02:42:06;;;;;;;2.37;1.70;;;;;;;;;;6237329;23;20405;-54
2022/05/29 02:44:39;;;;;;;4.20;3.30;;;;;;;;;;6231467;22;20804;-52
2022/05/29 02:47:15;;;;;;;3.40;2.00;;;;;;;;;;6232116;23;21008;-54
2022/05/29 02:49:46;;;;;;;2.30;1.83;;;;;;;;;;6224981;23;20516;-53
2022/05/29 02:52:13;;;;;;;4.50;2.30;;;;;;;;;;6235387;23;20378;-54
2022/05/29 02:54:39;;;;;;;3.53;2.07;;;;;;;;;;6224092;23;20456;-53
2022/05/29 02:57:06;;;;;;;3.87;1.70;;;;;;;;;;6237209;23;20401;-53
2022/05/29 02:59:43;;;;;;;3.10;1.90;;;;;;;;;;6231566;22;20378;-53
2022/05/29 03:02:15;;;;;;;4.13;1.80;;;;;;;;;;6238366;23;20807;-54
2022/05/29 03:05:05;;;;;;;4.93;1.80;;;;;;;;;;6239160;23;20968;-53
2022/05/29 03:07:41;;;;;;;4.40;1.97;;;;;;;;;;6261311;22;20391;-53
2022/05/29 03:10:20;;;;;;;1.97;1.77;;;;;;;;;;6224127;23;20389;-54
2022/05/29 03:12:58;;;;;;;6.33;2.20;;;;;;;;;;6234360;23;20725;-54
2022/05/29 03:15:35;;;;;;;2.80;1.40;;;;;;;;;;6231892;23;20397;-55
2022/05/29 03:18:31;;;;;;;2.60;1.87;;;;;;;;;;6235316;23;20374;-53
2022/05/29 03:21:01;;;;;;;2.27;1.73;;;;;;;;;;6191491;23;20393;-55
2022/05/29 03:23:33;;;;;;;2.10;1.80;;;;;;;;;;6234548;23;20386;-53
2022/05/29 03:26:00;;;;;;;3.50;1.97;;;;;;;;;;6223096;23;20778;-53
2022/05/29 03:28:31;;;;;;;2.43;1.70;;;;;;;;;;6231634;23;20365;-52
2022/05/29 03:30:57;;;;;;;3.63;1.60;;;;;;;;;;6230261;23;20378;-53
2022/05/29 03:33:23;;;;;;;11.00;2.20;;;;;;;;;;6233403;23;20426;-54
2022/05/29 03:35:52;;;;;;;2.00;1.70;;;;;;;;;;6210274;23;20392;-53
2022/05/29 03:38:18;;;;;;;3.20;2.20;;;;;;;;;;6235400;23;20386;-53
2022/05/29 03:40:45;;;;;;;1.93;1.73;;;;;;;;;;6224082;23;20383;-53
2022/05/29 03:43:11;;;;;;;2.13;1.93;;;;;;;;;;6236318;22;20381;-53
2022/05/29 03:45:57;;;;;;;3.10;1.80;;;;;;;;;;6242043;23;20401;-54
2022/05/29 03:48:30;;;;;;;5.97;1.63;;;;;;;;;;6234893;22;20386;-52
2022/05/29 03:50:56;;;;;;;2.30;1.63;;;;;;;;;;6221019;22;20842;-54
2022/05/29 03:53:22;;;;;;;2.90;1.80;;;;;;;;;;6226389;23;20788;-53
2022/05/29 03:55:48;;;;;;;3.13;2.23;;;;;;;;;;6236923;23;20403;-54
2022/05/29 03:58:14;;;;;;;4.80;2.40;;;;;;;;;;6219247;23;20382;-53
2022/05/29 04:00:39;;;;;;;2.20;2.00;;;;;;;;;;6234586;23;20432;-54
2022/05/29 04:03:06;;;;;;;4.60;2.33;;;;;;;;;;6223219;22;20166;-53
2022/05/29 04:05:32;;;;;;;2.13;1.87;;;;;;;;;;6236942;23;20367;-53
2022/05/29 04:13:27;;;;;;;3.17;2.00;;;;;;;;;;6234634;23;20448;-53
2022/05/29 04:15:53;;;;;;;5.33;2.57;;;;;;;;;;6237156;23;20443;-54
2022/05/29 04:18:20;;;;;;;8.47;2.60;;;;;;;;;;6230496;23;20854;-55
2022/05/29 04:20:46;;;;;;;4.23;2.10;;;;;;;;;;6238206;22;20399;-54
2022/05/29 04:23:12;;;;;;;2.90;1.73;;;;;;;;;;6228760;23;20887;-54
2022/05/29 04:25:39;;;;;;;8.77;3.30;;;;;;;;;;6237303;23;20826;-54
2022/05/29 04:28:07;;;;;;;3.43;2.03;;;;;;;;;;6231926;23;20427;-53
2022/05/29 04:30:33;;;;;;;3.93;2.20;;;;;;;;;;6236433;23;21014;-52
2022/05/29 04:33:01;;;;;;;4.13;2.10;;;;;;;;;;6225623;23;20671;-53
2022/05/29 04:35:32;;;;;;;3.70;2.57;;;;;;;;;;6238669;23;20378;-53
2022/05/29 04:37:58;;;;;;;2.50;2.20;;;;;;;;;;6228101;23;20489;-54
2022/05/29 04:40:25;;;;;;;3.67;2.50;;;;;;;;;;6236398;23;20420;-53
2022/05/29 04:42:51;;;;;;;3.40;2.40;;;;;;;;;;6224434;23;20374;-53
2022/05/29 04:45:17;;;;;;;5.67;2.17;;;;;;;;;;6235377;23;20809;-53
2022/05/29 04:47:43;;;;;;;5.43;2.53;;;;;;;;;;6229345;23;20366;-54
2022/05/29 04:50:09;;;;;;;12.03;3.03;;;;;;;;;;6237249;23;20440;-53
2022/05/29 04:52:35;;;;;;;5.73;3.57;;;;;;;;;;6221079;23;20379;-53
2022/05/29 04:55:01;;;;;;;5.60;2.90;;;;;;;;;;6236187;23;20389;-54
2022/05/29 04:57:27;;;;;;;5.53;3.10;;;;;;;;;;6218623;23;20385;-53
2022/05/29 04:59:53;;;;;;;3.20;2.57;;;;;;;;;;6237705;23;20154;-53
2022/05/29 05:02:19;;;;;;;5.30;2.47;;;;;;;;;;6231079;23;20374;-53
2022/05/29 05:04:46;;;;;;;3.53;2.77;;;;;;;;;;6238385;23;20386;-53
2022/05/29 05:07:28;;;;;;;3.10;2.83;;;;;;;;;;6233883;23;20469;-55
2022/05/29 05:09:54;;;;;;;4.30;3.90;;;;;;;;;;6261066;22;20375;-54
2022/05/29 05:12:20;;;;;;;2.80;2.60;;;;;;;;;;6225131;23;20850;-54
2022/05/29 05:14:46;;;;;;;4.83;2.57;;;;;;;;;;6240171;23;20430;-54
2022/05/29 05:17:42;;;;;;;3.17;2.87;;;;;;;;;;6240450;23;20697;-54
2022/05/29 05:20:13;;;;;;;3.17;2.63;;;;;;;;;;6213158;22;20435;-54
2022/05/29 05:22:59;;;;;;;5.57;3.13;;;;;;;;;;6240580;23;20375;-54
2022/05/29 05:25:25;;;;;;;7.57;2.97;;;;;;;;;;6226227;23;21075;-51
2022/05/29 05:27:51;;;;;;;2.60;2.40;;;;;;;;;;6240070;23;20468;-53
2022/05/29 05:30:17;;;;;;;3.03;2.70;;;;;;;;;;6225513;23;20899;-53
2022/05/29 05:32:43;;;;;;;3.87;2.57;;;;;;;;;;6242527;23;20375;-53
2022/05/29 05:35:09;;;;;;;5.70;2.77;;;;;;;;;;6226914;23;20725;-53
2022/05/29 05:37:36;;;;;;;4.07;2.93;;;;;;;;;;6239533;23;20790;-53
2022/05/29 05:40:02;;;;;;;5.50;2.63;;;;;;;;;;6229626;23;20932;-53
2022/05/29 05:42:30;;;;;;;4.90;2.53;;;;;;;;;;6242436;23;20497;-53
2022/05/29 05:44:56;;;;;;;4.53;2.20;;;;;;;;;;6237209;23;20393;-55
2022/05/29 05:47:22;;;;;;;2.70;2.50;;;;;;;;;;6240110;23;20407;-56
2022/05/29 05:49:51;;;;;;;3.17;2.13;;;;;;;;;;6243341;23;20845;-54
2022/05/29 05:52:18;;;;;;;5.07;2.90;;;;;;;;;;6238516;23;20833;-53
2022/05/29 05:54:45;;;;;;;3.40;2.30;;;;;;;;;;6233221;22;20513;-52
2022/05/29 05:57:11;;;;;;;8.37;2.20;;;;;;;;;;6240292;23;20371;-54
2022/05/29 05:59:37;;;;;;;4.93;2.73;;;;;;;;;;6235554;23;20390;-52
2022/05/29 06:02:03;;;;;;;5.67;2.70;;;;;;;;;;6238985;23;20398;-52
2022/05/29 06:04:29;;;;;;;2.93;2.00;;;;;;;;;;6233537;23;20359;-52
2022/05/29 06:06:55;;;;;;;4.10;2.80;;;;;;;;;;6238558;23;20470;-53
2022/05/29 06:09:32;;;;;;;4.40;2.17;;;;;;;;;;6240406;23;20378;-54
2022/05/29 06:12:03;;;;;;;5.20;2.47;;;;;;;;;;6232265;22;20390;-54
2022/05/29 06:14:29;;;;;;;2.73;2.33;;;;;;;;;;6231800;22;20517;-53
2022/05/29 06:16:55;;;;;;;2.00;1.83;;;;;;;;;;6237193;23;20474;-54
2022/05/29 06:19:21;;;;;;;2.53;2.10;;;;;;;;;;6232215;23;20470;-54
2022/05/29 06:21:47;;;;;;;4.37;2.03;;;;;;;;;;6235260;23;20765;-54
2022/05/29 06:24:37;;;;;;;2.20;1.90;;;;;;;;;;6240883;23;20382;-55
2022/05/29 06:27:09;;;;;;;4.13;2.07;;;;;;;;;;6228502;23;20413;-51
2022/05/29 06:29:35;;;;;;;3.60;1.90;;;;;;;;;;6236320;23;20366;-54
2022/05/29 06:32:03;;;;;;;3.60;1.60;;;;;;;;;;6236554;23;20374;-54
2022/05/29 06:34:29;;;;;;;2.43;1.80;;;;;;;;;;6224431;22;21179;-53
2022/05/29 06:36:55;;;;;;;3.23;1.77;;;;;;;;;;6238918;23;20911;-53
2022/05/29 06:39:26;;;;;;;3.70;2.00;;;;;;;;;;6230012;23;20729;-54
2022/05/29 06:41:53;;;;;;;3.53;1.83;;;;;;;;;;6240913;22;20374;-53
2022/05/29 06:44:47;;;;;;;3.60;2.47;;;;;;;;;;6242658;23;20367;-54
2022/05/29 06:47:15;;;;;;;2.27;1.80;;;;;;;;;;6221748;22;20757;-54
2022/05/29 06:49:41;;;;;;;6.57;2.23;;;;;;;;;;6241204;22;20371;-54
2022/05/29 06:52:07;;;;;;;6.03;2.20;;;;;;;;;;6222810;23;20981;-53
2022/05/29 06:54:34;;;;;;;4.13;2.30;;;;;;;;;;6236308;23;21271;-53
2022/05/29 06:57:36;;;;;;;4.77;2.47;;;;;;;;;;6241999;23;20378;-53
2022/05/29 07:08:02;;;;;;;5.50;1.73;;;;;;;;;;6222968;23;20853;-54
2022/05/29 07:10:28;;;;;;;2.50;1.67;;;;;;;;;;6237958;23;20381;-54
2022/05/29 07:12:54;;;;;;;3.10;1.67;;;;;;;;;;6232627;23;20435;-54
2022/05/29 07:15:20;;;;;;;3.73;1.40;;;;;;;;;;6238077;23;20370;-57
2022/05/29 07:17:46;;;;;;;8.77;1.90;;;;;;;;;;6224077;23;20393;-55
2022/05/29 07:20:12;;;;;;;2.37;1.43;;;;;;;;;;6237293;23;20853;-55
2022/05/29 07:22:40;;;;;;;3.13;1.47;;;;;;;;;;6221435;23;20499;-53
2022/05/29 07:25:07;;;;;;;4.70;1.50;;;;;;;;;;6236018;22;20401;-53
2022/05/29 07:27:33;;;;;;;3.20;1.67;;;;;;;;;;6223524;22;20445;-53
2022/05/29 07:29:59;;;;;;;2.70;1.47;;;;;;;;;;6235963;23;20469;-52
2022/05/29 07:32:25;;;;;;;3.20;1.60;;;;;;;;;;6228063;23;20378;-53
2022/05/29 07:34:52;;;;;;;3.80;1.93;;;;;;;;;;6237790;23;20941;-54
2022/05/29 07:37:18;;;;;;;5.93;2.30;;;;;;;;;;6225108;23;20381;-53
2022/05/29 07:39:48;;;;;;;5.10;1.90;;;;;;;;;;6238061;23;20706;-53
2022/05/29 07:44:59;;;;;;;2.20;1.90;;;;;;;;;;6220498;23;20798;-54
2022/05/29 07:47:55;;;;;;;3.57;2.10;;;;;;;;;;6241728;22;20434;-55
2022/05/29 07:50:22;;;;;;;8.70;2.40;;;;;;;;;;6232543;23;20713;-54
2022/05/29 07:52:50;;;;;;;6.60;1.67;;;;;;;;;;6227442;23;20362;-53
2022/05/29 07:55:17;;;;;;;8.83;3.00;;;;;;;;;;6236371;22;20874;-54
2022/05/29 07:57:43;;;;;;;6.80;1.70;;;;;;;;;;6222865;22;20769;-55
2022/05/29 08:00:10;;;;;;;2.93;2.47;;;;;;;;;;6238419;23;20392;-53
2022/05/29 08:02:54;;;;;;;3.10;1.63;;;;;;;;;;6241594;23;20394;-54
2022/05/29 08:08:25;;;;;;;4.73;2.13;;;;;;;;;;6215835;23;20488;-54
2022/05/29 08:11:07;;;;;;;5.07;1.90;;;;;;;;;;6233822;22;20409;-53
2022/05/29 08:13:37;;;;;;;4.77;2.10;;;;;;;;;;6236748;22;20445;-54
2022/05/29 08:16:05;;;;;;;7.37;2.33;;;;;;;;;;6221552;23;20377;-54
2022/05/29 08:18:31;;;;;;;4.17;2.00;;;;;;;;;;6234774;23;20475;-53
2022/05/29 08:21:33;;;;;;;3.73;1.60;;;;;;;;;;6242583;23;20368;-55
2022/05/29 08:35:18;;;;;;;2.80;2.20;;;;;;;;;;6227845;23;20793;-54
2022/05/29 08:37:44;;;;;;;3.83;1.60;;;;;;;;;;6232841;23;20901;-54
2022/05/29 08:40:10;;;;;;;10.63;2.40;;;;;;;;;;6234738;23;20895;-54
2022/05/29 08:42:38;;;;;;;3.00;2.17;;;;;;;;;;6225612;23;20418;-51
2022/05/29 08:45:04;;;;;;;4.57;1.90;;;;;;;;;;6206160;23;20385;-53
2022/05/29 08:47:47;;;;;;;6.00;2.50;;;;;;;;;;6230298;23;20386;-54
2022/05/29 08:50:23;;;;;;;5.40;2.10;;;;;;;;;;6232612;23;20381;-54
2022/05/29 08:52:59;;;;;;;2.57;1.90;;;;;;;;;;6239605;23;20378;-54
2022/05/29 08:55:26;;;;;;;3.53;1.80;;;;;;;;;;6235141;23;20934;-53
2022/05/29 08:58:11;;;;;;;3.50;2.60;;;;;;;;;;6234735;23;20857;-54
2022/05/29 09:00:46;;;;;;;3.67;2.10;;;;;;;;;;6231081;23;20424;-52
2022/05/29 09:03:31;;;;;;;5.70;2.80;;;;;;;;;;6233551;22;20977;-55
2022/05/29 09:06:06;;;;;;;5.40;2.57;;;;;;;;;;6229486;23;20386;-53
2022/05/29 09:08:34;;;;;;;4.47;2.53;;;;;;;;;;6225757;23;20370;-57
2022/05/29 09:11:10;;;;;;;5.47;2.57;;;;;;;;;;6230973;23;20423;-54
2022/05/29 09:13:37;;;;;;;9.67;2.70;;;;;;;;;;6222440;22;20417;-53
2022/05/29 09:16:11;;;;;;;5.13;2.60;;;;;;;;;;6235069;22;20736;-54
2022/05/29 09:18:41;;;;;;;3.53;2.23;;;;;;;;;;6228871;23;20438;-54
2022/05/29 09:21:17;;;;;;;7.20;2.33;;;;;;;;;;6233666;23;20956;-55
2022/05/29 09:23:52;;;;;;;3.83;2.70;;;;;;;;;;6220720;23;20449;-54
2022/05/29 09:26:19;;;;;;;4.67;3.33;;;;;;;;;;6232517;23;20377;-54
2022/05/29 09:28:45;;;;;;;6.90;2.40;;;;;;;;;;6223125;23;20362;-55
2022/05/29 09:31:13;;;;;;;5.53;2.80;;;;;;;;;;6231902;23;20374;-55
2022/05/29 09:33:39;;;;;;;5.57;2.80;;;;;;;;;;6234542;23;20528;-54
2022/05/29 09:36:25;;;;;;;5.80;2.73;;;;;;;;;;6237073;23;20429;-54
2022/05/29 09:39:01;;;;;;;4.70;2.27;;;;;;;;;;6224658;23;20380;-55
2022/05/29 09:41:34;;;;;;;3.43;2.60;;;;;;;;;;6233203;23;20675;-55
2022/05/29 09:44:16;;;;;;;7.33;2.57;;;;;;;;;;6226614;23;20457;-56
2022/05/29 09:46:45;;;;;;;5.00;2.30;;;;;;;;;;6235556;23;20769;-54
2022/05/29 09:52:12;;;;;;;4.13;2.10;;;;;;;;;;6234910;23;20377;-55
2022/05/29 09:54:39;;;;;;;3.20;1.90;;;;;;;;;;6203670;23;20452;-54
2022/05/29 09:57:13;;;;;;;3.67;1.73;;;;;;;;;;6236244;23;20405;-55
2022/05/29 09:59:44;;;;;;;4.00;2.20;;;;;;;;;;6215044;23;20869;-56
2022/05/29 10:02:19;;;;;;;3.37;2.23;;;;;;;;;;6237748;23;20489;-55
2022/05/29 10:04:45;;;;;;;4.53;1.60;;;;;;;;;;6222452;23;20353;-55
2022/05/29 10:07:13;;;;;;;5.50;2.10;;;;;;;;;;6236941;23;20450;-55
2022/05/29 10:09:56;;;;;;;5.70;2.43;;;;;;;;;;6229439;23;20413;-57
2022/05/29 10:12:22;;;;;;;5.30;2.47;;;;;;;;;;6207268;23;20390;-56
2022/05/29 10:14:50;;;;;;;2.13;1.93;;;;;;;;;;6232952;23;20883;-55
2022/05/29 10:17:31;;;;;;;5.73;2.23;;;;;;;;;;6228900;23;20175;-55
2022/05/29 10:20:04;;;;;;;7.77;1.60;;;;;;;;;;6211990;23;20774;-55
2022/05/29 10:22:37;;;;;;;8.77;2.87;;;;;;;;;;6252840;22;20452;-55
2022/05/29 10:25:14;;;;;;;4.97;1.83;;;;;;;;;;6225553;22;20378;-55
2022/05/29 10:27:40;;;;;;;6.03;2.20;;;;;;;;;;6236334;23;20381;-56
2022/05/29 10:30:08;;;;;;;3.97;2.80;;;;;;;;;;6222983;23;20389;-56
2022/05/29 10:32:52;;;;;;;5.83;3.13;;;;;;;;;;6236511;23;20378;-55
2022/05/29 10:35:38;;;;;;;2.73;2.20;;;;;;;;;;6240740;22;20397;-53
2022/05/29 10:38:16;;;;;;;4.80;2.83;;;;;;;;;;6260113;22;20693;-54
2022/05/29 10:40:43;;;;;;;5.67;2.50;;;;;;;;;;6231663;23;20386;-53
2022/05/29 10:46:20;;;;;;;5.93;1.97;;;;;;;;;;6211695;23;20374;-54
2022/05/29 10:48:46;;;;;;;8.43;2.97;;;;;;;;;;6236695;23;20689;-55
2022/05/29 10:51:30;;;;;;;3.07;2.33;;;;;;;;;;6220806;23;20482;-54
2022/05/29 10:54:19;;;;;;;4.30;1.80;;;;;;;;;;6237386;23;20532;-53
2022/05/29 10:56:52;;;;;;;2.93;1.80;;;;;;;;;;6236905;23;20406;-54
2022/05/29 10:59:47;;;;;;;2.87;2.10;;;;;;;;;;6235744;23;20378;-53
2022/05/29 11:05:27;;;;;;;2.90;1.60;;;;;;;;;;6236028;23;20864;-54
2022/05/29 11:08:15;;;;;;;5.83;2.03;;;;;;;;;;6232021;22;20374;-55
2022/05/29 11:14:09;;;;;;;2.30;1.50;;;;;;;;;;6222357;23;20452;-54
2022/05/29 11:19:53;;;;;;;3.00;1.17;;;;;;;;;;6223488;23;20369;-55
2022/05/29 11:25:32;;;;;;;3.27;1.60;;;;;;;;;;6219367;23;20373;-55
2022/05/29 11:28:29;;;;;;;2.40;1.33;;;;;;;;;;6236016;23;20717;-57
2022/05/29 11:31:12;;;;;;;1.90;1.60;;;;;;;;;;6241005;23;20708;-55
2022/05/29 11:33:49;;;;;;;2.67;1.33;;;;;;;;;;6233262;23;20430;-55
2022/05/29 11:36:35;;;;;;;4.27;1.40;;;;;;;;;;6238384;23;20362;-56
2022/05/29 11:39:07;;;;;;;1.60;1.10;;;;;;;;;;6220229;22;20394;-54
2022/05/29 11:41:42;;;;;;;3.23;1.60;;;;;;;;;;6239726;23;20807;-54
2022/05/29 11:44:22;;;;;;;2.03;1.50;;;;;;;;;;6237489;23;20366;-55
2022/05/29 11:52:24;;;;;;;2.50;1.53;;;;;;;;;;6236667;23;20420;-54
2022/05/29 11:54:53;;;;;;;2.80;1.40;;;;;;;;;;6226814;23;20465;-53
2022/05/29 11:57:43;;;;;;;1.57;1.10;;;;;;;;;;6234748;23;20379;-54
2022/05/29 12:00:13;;;;;;;1.83;1.23;;;;;;;;;;6211332;23;20450;-54
2022/05/29 12:03:01;;;;;;;2.23;1.30;;;;;;;;;;6207919;23;20418;-54
2022/05/29 12:05:49;;;;;;;7.23;1.27;;;;;;;;;;6217071;23;20385;-54
2022/05/29 12:11:22;;;;;;;2.27;0.97;;;;;;;;;;6230309;23;20844;-54
2022/05/29 12:13:56;;;;;;;2.00;1.00;;;;;;;;;;6232230;23;20523;-53
2022/05/29 12:16:24;;;;;;;2.17;1.37;;;;;;;;;;6233297;23;20385;-55
2022/05/29 12:19:35;;;;;;;7.00;1.33;;;;;;;;;;6238207;23;20370;-56
2022/05/29 12:22:07;;;;;;;3.20;1.00;;;;;;;;;;6236778;23;20461;-54
2022/05/29 12:24:42;;;;;;;2.07;1.50;;;;;;;;;;6228803;23;20541;-54
2022/05/29 12:27:15;;;;;;;3.07;1.23;;;;;;;;;;6234176;23;20493;-52
2022/05/29 12:30:04;;;;;;;1.60;1.20;;;;;;;;;;6220378;23;20378;-56
2022/05/29 12:32:34;;;;;;;4.27;1.40;;;;;;;;;;6228321;22;20382;-54
2022/05/29 12:38:07;;;;;;;4.53;1.80;;;;;;;;;;6225791;23;20377;-55
2022/05/29 12:40:34;;;;;;;4.10;2.00;;;;;;;;;;6232977;23;20516;-54
2022/05/29 12:43:19;;;;;;;2.57;1.80;;;;;;;;;;6233451;23;20879;-56
2022/05/29 12:45:48;;;;;;;2.33;1.60;;;;;;;;;;6220790;23;20377;-54
2022/05/29 12:48:23;;;;;;;5.40;1.70;;;;;;;;;;6235077;23;20434;-53
2022/05/29 12:53:59;;;;;;;2.53;1.53;;;;;;;;;;6217106;23;20882;-54
2022/05/29 12:56:59;;;;;;;2.70;1.80;;;;;;;;;;6233747;23;20499;-58
2022/05/29 12:59:38;;;;;;;2.70;1.70;;;;;;;;;;6230376;23;20382;-55
2022/05/29 13:02:14;;;;;;;4.53;1.83;;;;;;;;;;6225909;23;20419;-56
2022/05/29 13:05:01;;;;;;;5.97;1.80;;;;;;;;;;6239937;23;20378;-55
2022/05/29 13:07:30;;;;;;;2.93;1.70;;;;;;;;;;6243900;23;20373;-54
2022/05/29 13:10:06;;;;;;;3.43;1.50;;;;;;;;;;6235063;23;20355;-56
2022/05/29 13:12:40;;;;;;;5.17;1.83;;;;;;;;;;6236864;23;20414;-55
2022/05/29 13:15:13;;;;;;;4.73;1.90;;;;;;;;;;6235147;22;20445;-56
2022/05/29 13:17:48;;;;;;;3.17;1.80;;;;;;;;;;6230949;23;20392;-56
2022/05/29 13:20:17;;;;;;;2.93;2.00;;;;;;;;;;6239083;23;20452;-59
2022/05/29 13:22:47;;;;;;;3.37;1.70;;;;;;;;;;6245730;23;20370;-55
2022/05/29 13:25:16;;;;;;;3.50;2.00;;;;;;;;;;6239442;23;20371;-55
2022/05/29 13:27:48;;;;;;;2.43;1.50;;;;;;;;;;6224353;23;20460;-55
2022/05/29 13:30:40;;;;;;;3.80;1.90;;;;;;;;;;6233895;23;20382;-54
2022/05/29 13:36:32;;;;;;;2.70;1.37;;;;;;;;;;6230979;23;20859;-56
2022/05/29 13:39:33;;;;;;;3.87;1.70;;;;;;;;;;6231687;23;20378;-56
2022/05/29 13:42:01;;;;;;;4.00;1.93;;;;;;;;;;6182279;22;20831;-56
2022/05/29 13:44:28;;;;;;;2.40;1.60;;;;;;;;;;6232426;23;20926;-55
2022/05/29 13:47:16;;;;;;;2.63;1.47;;;;;;;;;;6234110;23;20466;-57
2022/05/29 13:49:51;;;;;;;3.07;1.60;;;;;;;;;;6227456;22;20435;-55
2022/05/29 13:55:22;;;;;;;2.07;1.20;;;;;;;;;;6208085;23;21031;-54
2022/05/29 14:03:58;;;;;;;2.90;1.40;;;;;;;;;;6234562;23;20837;-55
2022/05/29 14:06:44;;;;;;;2.53;1.50;;;;;;;;;;6227901;23;20450;-54
2022/05/29 14:09:10;;;;;;;2.23;1.43;;;;;;;;;;6222919;22;20999;-55
2022/05/29 14:11:44;;;;;;;3.20;1.40;;;;;;;;;;6224495;23;20417;-55
2022/05/29 14:14:29;;;;;;;3.17;1.70;;;;;;;;;;6224670;23;20429;-58
2022/05/29 14:16:56;;;;;;;2.00;1.40;;;;;;;;;;6226349;23;20727;-60
2022/05/29 14:19:41;;;;;;;2.50;1.30;;;;;;;;;;6215039;23;20382;-54
2022/05/29 14:22:15;;;;;;;2.70;1.30;;;;;;;;;;6227861;23;20400;-54
2022/05/29 14:24:46;;;;;;;2.83;1.60;;;;;;;;;;6231900;23;20453;-54
2022/05/29 14:27:15;;;;;;;2.00;1.53;;;;;;;;;;6228426;23;20658;-55
2022/05/29 14:29:53;;;;;;;4.10;1.90;;;;;;;;;;6226565;23;20748;-55
2022/05/29 14:32:20;;;;;;;5.50;1.43;;;;;;;;;;6225714;23;20477;-54
2022/05/29 14:34:51;;;;;;;6.13;1.70;;;;;;;;;;6209688;23;20912;-56
2022/05/29 14:37:25;;;;;;;2.60;1.50;;;;;;;;;;6215002;22;20366;-53
2022/05/29 14:39:58;;;;;;;2.87;1.47;;;;;;;;;;6226020;23;20374;-55
2022/05/29 14:42:31;;;;;;;3.77;1.60;;;;;;;;;;6202698;23;20497;-54
2022/05/29 14:44:59;;;;;;;1.30;1.00;;;;;;;;;;6224382;23;20496;-54
2022/05/29 14:47:39;;;;;;;1.97;1.23;;;;;;;;;;6240639;22;20554;-55
2022/05/29 14:50:10;;;;;;;1.77;1.27;;;;;;;;;;6230893;23;20370;-56
2022/05/29 14:52:58;;;;;;;1.70;1.20;;;;;;;;;;6221604;23;20929;-55
2022/05/29 14:55:55;;;;;;;2.20;1.20;;;;;;;;;;6229925;22;20873;-56
2022/05/29 14:58:41;;;;;;;1.63;1.13;;;;;;;;;;6196241;22;20379;-54
2022/05/29 15:01:38;;;;;;;2.27;1.20;;;;;;;;;;6229681;23;20370;-56
2022/05/29 15:04:08;;;;;;;2.87;1.17;;;;;;;;;;6227829;22;20374;-52
2022/05/29 15:12:23;;;;;;;6.10;1.33;;;;;;;;;;6227313;23;21016;-54
2022/05/29 15:14:49;;;;;;;1.47;1.03;;;;;;;;;;6225557;23;20452;-55
2022/05/29 15:17:21;;;;;;;2.67;1.23;;;;;;;;;;6230820;23;20442;-56
2022/05/29 15:24:08;;;;;;;1.80;1.10;;;;;;;;;;6226547;23;20410;-55
2022/05/29 15:25:40;;;;;;;1.77;1.20;;;;;;;;;;6229207;23;20742;-55
2022/05/29 15:28:08;;;;;;;3.60;1.50;;;;;;;;;;6221886;23;20378;-54
2022/05/29 15:30:34;;;;;;;1.70;0.97;;;;;;;;;;6199105;23;20584;-53
2022/05/29 15:33:05;;;;;;;3.00;1.73;;;;;;;;;;6214781;23;20571;-54
2022/05/29 15:35:49;;;;;;;2.47;1.50;;;;;;;;;;6228519;23;20470;-55
2022/05/29 15:38:30;;;;;;;1.80;1.20;;;;;;;;;;6223885;23;20401;-54
2022/05/29 15:44:05;;;;;;;1.70;1.30;;;;;;;;;;6202993;23;20614;-55
2022/05/29 15:46:40;;;;;;;2.83;1.40;;;;;;;;;;6228072;23;20386;-55
2022/05/29 15:49:31;;;;;;;2.20;1.37;;;;;;;;;;6234490;23;20389;-55
2022/05/29 15:52:06;;;;;;;3.83;1.47;;;;;;;;;;6230258;22;20428;-55
2022/05/29 15:54:39;;;;;;;2.70;1.37;;;;;;;;;;6215213;23;20524;-55
2022/05/29 15:57:12;;;;;;;2.23;1.30;;;;;;;;;;6231436;23;20393;-53
2022/05/29 15:59:48;;;;;;;1.43;1.20;;;;;;;;;;6219043;23;20881;-54
2022/05/29 16:02:15;;;;;;;3.10;1.87;;;;;;;;;;6226620;23;20378;-55
2022/05/29 16:04:49;;;;;;;2.33;2.13;;;;;;;;;;6223513;23;20512;-54
2022/05/29 16:07:34;;;;;;;1.90;1.60;;;;;;;;;;6226257;23;20461;-54
2022/05/29 16:10:01;;;;;;;3.50;1.80;;;;;;;;;;6223848;23;20402;-55
2022/05/29 16:12:27;;;;;;;3.27;1.73;;;;;;;;;;6225899;23;20381;-55
2022/05/29 16:14:54;;;;;;;3.00;1.60;;;;;;;;;;6222194;23;20453;-55
2022/05/29 16:17:29;;;;;;;2.27;1.43;;;;;;;;;;6231999;23;20379;-56
2022/05/29 16:20:16;;;;;;;3.10;1.93;;;;;;;;;;6223992;23;20389;-55
2022/05/29 16:22:46;;;;;;;2.90;1.23;;;;;;;;;;6231814;22;21264;-55
2022/05/29 16:25:14;;;;;;;3.07;1.77;;;;;;;;;;6235822;23;20374;-54
2022/05/29 16:27:47;;;;;;;3.43;2.10;;;;;;;;;;6232866;23;20469;-56
2022/05/29 16:30:24;;;;;;;2.37;1.57;;;;;;;;;;6240000;22;20354;-52
2022/05/29 16:32:53;;;;;;;5.47;2.10;;;;;;;;;;6241189;23;20362;-56
2022/05/29 16:35:21;;;;;;;3.10;1.60;;;;;;;;;;6241073;22;20517;-54
2022/05/29 16:49:49;;;;;;;1.93;1.60;;;;;;;;;;6239691;23;20356;-55
2022/05/29 16:52:36;;;;;;;2.80;1.67;;;;;;;;;;6243028;23;20385;-56
2022/05/29 16:55:04;;;;;;;4.10;2.60;;;;;;;;;;6237454;22;20438;-52
2022/05/29 16:57:39;;;;;;;4.40;1.50;;;;;;;;;;6234179;23;20375;-54
2022/05/29 17:00:06;;;;;;;3.10;1.60;;;;;;;;;;6241488;23;20499;-56
2022/05/29 17:02:35;;;;;;;3.13;1.47;;;;;;;;;;6233690;23;20390;-56
2022/05/29 17:05:09;;;;;;;5.40;1.43;;;;;;;;;;6239078;23;20366;-57
2022/05/29 17:07:46;;;;;;;2.53;1.50;;;;;;;;;;6224097;23;20477;-56
2022/05/29 17:10:25;;;;;;;6.53;1.33;;;;;;;;;;6241020;22;20397;-57
2022/05/29 17:12:51;;;;;;;3.13;1.60;;;;;;;;;;6213080;23;20914;-55
2022/05/29 17:15:19;;;;;;;2.30;1.40;;;;;;;;;;6227603;23;20544;-55